createdAt,value
2018-06-11T00:02:01.871Z,18.27
2018-06-11T00:04:30.252Z,18.10
2018-06-11T00:06:58.625Z,17.50
2018-06-11T00:09:27.060Z,17.30
2018-06-11T00:11:55.475Z,17.40
2018-06-11T00:14:23.886Z,17.50
2018-06-11T00:16:52.002Z,18.07
2018-06-11T00:19:20.410Z,18.05
2018-06-11T00:21:48.827Z,19.02
2018-06-11T00:24:17.214Z,18.10
2018-06-11T00:26:45.612Z,18.75
2018-06-11T00:29:13.997Z,17.95
2018-06-11T00:31:42.400Z,18.83
2018-06-11T00:34:10.778Z,18.90
2018-06-11T00:36:39.155Z,18.23
2018-06-11T00:39:08.683Z,18.53
2018-06-11T00:41:37.089Z,18.75
2018-06-11T00:44:05.541Z,18.37
2018-06-11T00:46:33.927Z,19.98
2018-06-11T00:49:02.414Z,18.42
2018-06-11T00:51:30.810Z,18.90
2018-06-11T00:53:59.207Z,19.43
2018-06-11T00:56:27.593Z,18.83
2018-06-11T00:58:56.068Z,19.90
2018-06-11T01:01:24.467Z,20.80
2018-06-11T01:03:52.926Z,19.70
2018-06-11T01:06:21.329Z,21.52
2018-06-11T01:08:49.722Z,19.67
2018-06-11T01:11:18.114Z,22.50
2018-06-11T01:13:46.491Z,20.80
2018-06-11T01:16:14.902Z,20.43
2018-06-11T01:18:43.288Z,20.10
2018-06-11T01:21:11.683Z,21.00
2018-06-11T01:23:40.104Z,20.70
2018-06-11T01:26:08.482Z,20.72
2018-06-11T01:28:36.918Z,20.48
2018-06-11T01:31:05.331Z,21.95
2018-06-11T01:33:33.736Z,20.88
2018-06-11T01:36:02.142Z,20.82
2018-06-11T01:38:30.538Z,21.45
2018-06-11T01:40:58.947Z,20.10
2018-06-11T01:43:27.350Z,20.90
2018-06-11T01:45:55.807Z,20.30
2018-06-11T01:48:24.205Z,21.45
2018-06-11T01:50:52.297Z,20.70
2018-06-11T01:53:20.489Z,20.32
2018-06-11T01:55:48.877Z,20.80
2018-06-11T01:58:17.291Z,20.90
2018-06-11T02:00:45.682Z,21.27
2018-06-11T02:03:13.790Z,19.85
2018-06-11T02:05:42.222Z,21.23
2018-06-11T02:08:10.663Z,23.15
2018-06-11T02:10:39.098Z,20.75
2018-06-11T02:13:07.189Z,22.57
2018-06-11T02:15:35.567Z,21.77
2018-06-11T02:18:03.980Z,20.50
2018-06-11T02:20:32.383Z,21.03
2018-06-11T02:23:00.786Z,21.33
2018-06-11T02:25:28.890Z,20.75
2018-06-11T02:27:57.310Z,21.57
2018-06-11T02:30:25.723Z,21.70
2018-06-11T02:32:53.824Z,21.57
2018-06-11T02:35:22.219Z,20.45
2018-06-11T02:37:50.625Z,20.70
2018-06-11T02:40:19.035Z,20.72
2018-06-11T02:42:47.129Z,20.17
2018-06-11T02:45:15.531Z,19.80
2018-06-11T02:47:43.930Z,20.32
2018-06-11T02:50:12.330Z,19.70
2018-06-11T02:52:40.738Z,18.98
2018-06-11T02:55:09.155Z,18.75
2018-06-11T02:57:37.550Z,18.60
2018-06-11T03:00:05.977Z,18.17
2018-06-11T03:02:34.374Z,18.37
2018-06-11T03:05:02.788Z,17.75
2018-06-11T03:07:31.183Z,17.25
2018-06-11T03:09:59.625Z,16.37
2018-06-11T03:12:28.016Z,18.02
2018-06-11T03:14:56.409Z,16.82
2018-06-11T03:17:24.814Z,16.40
2018-06-11T03:19:52.914Z,16.70
2018-06-11T03:22:21.297Z,16.12
2018-06-11T03:24:49.691Z,16.40
2018-06-11T03:27:18.092Z,15.80
2018-06-11T03:29:46.496Z,15.95
2018-06-11T03:32:14.915Z,15.75
2018-06-11T03:34:43.326Z,15.40
2018-06-11T03:37:11.769Z,15.40
2018-06-11T03:39:40.187Z,14.83
2018-06-11T03:42:08.596Z,15.40
2018-06-11T03:44:36.998Z,14.80
2018-06-11T03:47:05.425Z,14.00
2018-06-11T03:49:33.826Z,14.65
2018-06-11T03:52:02.222Z,14.18
2018-06-11T03:54:30.647Z,14.03
2018-06-11T03:56:59.052Z,14.35
2018-06-11T03:59:27.431Z,14.40
2018-06-11T04:01:55.838Z,14.10
2018-06-11T04:04:24.250Z,13.90
2018-06-11T04:06:52.683Z,14.07
2018-06-11T04:09:21.060Z,14.18
2018-06-11T04:11:49.467Z,13.75
2018-06-11T04:14:17.867Z,13.25
2018-06-11T04:16:46.265Z,13.08
2018-06-11T04:19:14.670Z,13.30
2018-06-11T04:21:43.060Z,13.03
2018-06-11T04:24:11.450Z,11.50
2018-06-11T04:26:39.559Z,12.60
2018-06-11T04:29:07.969Z,13.95
2018-06-11T04:31:36.371Z,12.57
2018-06-11T04:34:04.471Z,11.57
2018-06-11T04:36:32.851Z,13.20
2018-06-11T04:39:01.228Z,12.40
2018-06-11T04:41:29.618Z,13.03
2018-06-11T04:43:58.020Z,12.45
2018-06-11T04:46:26.406Z,12.23
2018-06-11T04:48:54.819Z,11.95
2018-06-11T04:51:22.909Z,12.90
2018-06-11T04:53:51.313Z,12.30
2018-06-11T04:56:19.719Z,11.00
2018-06-11T04:58:48.108Z,10.90
2018-06-11T05:01:16.509Z,11.50
2018-06-11T05:03:44.627Z,11.00
2018-06-11T05:06:13.031Z,11.25
2018-06-11T05:08:41.440Z,10.80
2018-06-11T05:11:09.846Z,11.00
2018-06-11T05:13:38.225Z,11.40
2018-06-11T05:16:06.631Z,10.00
2018-06-11T05:18:35.018Z,10.90
2018-06-11T05:21:03.409Z,10.33
2018-06-11T05:23:31.805Z,10.83
2018-06-11T05:26:00.205Z,11.80
2018-06-11T05:28:28.605Z,10.55
2018-06-11T05:30:57.080Z,10.60
2018-06-11T05:33:25.482Z,9.53
2018-06-11T05:35:53.871Z,10.35
2018-06-11T05:38:22.285Z,10.28
2018-06-11T05:40:50.699Z,11.03
2018-06-11T05:43:19.084Z,10.50
2018-06-11T05:45:47.486Z,10.08
2018-06-11T05:48:15.886Z,10.48
2018-06-11T05:50:44.297Z,10.90
2018-06-11T05:53:12.700Z,10.20
2018-06-11T05:55:41.107Z,10.35
2018-06-11T05:58:09.494Z,10.55
2018-06-11T06:00:37.876Z,10.43
2018-06-11T06:03:06.278Z,10.00
2018-06-11T06:05:34.393Z,10.30
2018-06-11T06:08:02.776Z,10.08
2018-06-11T06:10:31.163Z,9.30
2018-06-11T06:12:59.546Z,10.10
2018-06-11T06:15:28.863Z,10.08
2018-06-11T06:17:57.241Z,9.60
2018-06-11T06:20:25.663Z,9.67
2018-06-11T06:22:54.057Z,9.83
2018-06-11T06:25:22.461Z,10.30
2018-06-11T06:27:50.848Z,9.18
2018-06-11T06:30:19.266Z,9.30
2018-06-11T06:32:47.662Z,10.38
2018-06-11T06:35:16.058Z,9.93
2018-06-11T06:37:44.492Z,9.40
2018-06-11T06:40:12.904Z,9.13
2018-06-11T06:42:41.306Z,9.38
2018-06-11T06:45:09.699Z,9.23
2018-06-11T06:47:38.099Z,9.05
2018-06-11T06:50:06.486Z,9.50
2018-06-11T06:52:34.882Z,9.00
2018-06-11T06:55:03.290Z,9.10
2018-06-11T06:57:31.672Z,9.90
2018-06-11T07:00:00.053Z,10.08
2018-06-11T07:02:28.435Z,10.40
2018-06-11T07:04:56.838Z,9.73
2018-06-11T07:07:25.239Z,11.97
2018-06-11T07:09:53.331Z,11.55
2018-06-11T07:12:21.734Z,10.35
2018-06-11T07:14:50.127Z,11.48
2018-06-11T07:17:18.515Z,11.57
2018-06-11T07:19:46.921Z,11.70
2018-06-11T07:22:15.008Z,12.03
2018-06-11T07:24:43.748Z,12.47
2018-06-11T07:27:12.198Z,12.50
2018-06-11T07:29:40.540Z,11.30
2018-06-11T07:32:08.952Z,11.77
2018-06-11T07:34:37.330Z,13.03
2018-06-11T07:37:05.996Z,12.47
2018-06-11T07:39:34.389Z,10.85
2018-06-11T07:42:02.778Z,12.75
2018-06-11T07:44:31.158Z,14.18
2018-06-11T07:46:59.543Z,12.50
2018-06-11T07:49:27.922Z,12.15
2018-06-11T07:51:56.320Z,13.25
2018-06-11T07:54:24.720Z,13.25
2018-06-11T07:56:53.125Z,13.60
2018-06-11T07:59:21.531Z,14.13
2018-06-11T08:01:49.959Z,15.40
2018-06-11T08:04:18.360Z,16.95
2018-06-11T08:06:46.765Z,15.43
2018-06-11T08:09:15.180Z,14.75
2018-06-11T08:11:43.575Z,17.12
2018-06-11T08:14:11.959Z,16.05
2018-06-11T08:16:40.362Z,13.08
2018-06-11T08:19:08.766Z,21.20
2018-06-11T08:21:37.173Z,14.57
2018-06-11T08:24:05.641Z,14.60
2018-06-11T08:26:34.047Z,15.60
2018-06-11T08:29:02.463Z,13.65
2018-06-11T08:31:30.911Z,13.90
2018-06-11T08:33:59.393Z,13.60
2018-06-11T08:36:27.793Z,16.57
2018-06-11T08:38:55.934Z,14.83
2018-06-11T08:41:24.341Z,16.80
2018-06-11T08:43:52.474Z,18.82
2018-06-11T08:46:20.885Z,20.50
2018-06-11T08:48:48.998Z,22.17
2018-06-11T08:51:17.387Z,26.17
2018-06-11T08:53:45.902Z,27.32
2018-06-11T08:56:14.315Z,27.20
2018-06-11T08:58:42.704Z,26.33
2018-06-11T09:03:03.880Z,21.65
2018-06-11T09:05:32.339Z,16.60
2018-06-11T09:08:00.741Z,17.12
2018-06-11T09:12:55.379Z,28.35
2018-06-11T09:15:23.802Z,27.82
2018-06-11T09:17:52.211Z,30.50
2018-06-11T09:20:20.643Z,28.95
2018-06-11T09:22:49.126Z,25.97
2018-06-11T09:25:17.513Z,23.98
2018-06-11T09:27:45.953Z,24.05
2018-06-11T09:30:14.377Z,26.07
2018-06-11T09:32:42.803Z,25.40
2018-06-11T09:35:11.200Z,22.00
2018-06-11T09:37:39.604Z,22.00
2018-06-11T09:40:07.997Z,20.73
2018-06-11T09:42:36.423Z,20.77
2018-06-11T09:45:04.855Z,20.47
2018-06-11T09:47:33.255Z,18.90
2018-06-11T09:50:01.646Z,19.02
2018-06-11T09:52:30.057Z,15.95
2018-06-11T09:54:58.578Z,16.40
2018-06-11T09:57:27.000Z,20.50
2018-06-11T09:59:55.107Z,22.90
2018-06-11T10:02:23.490Z,21.70
2018-06-11T10:04:51.906Z,19.87
2018-06-11T10:07:20.314Z,19.23
2018-06-11T10:09:48.422Z,17.17
2018-06-11T10:12:17.071Z,14.10
2018-06-11T10:14:45.439Z,15.72
2018-06-11T10:17:13.851Z,15.57
2018-06-11T10:19:42.246Z,14.50
2018-06-11T10:22:10.667Z,13.60
2018-06-11T10:24:39.078Z,13.73
2018-06-11T10:27:07.488Z,13.47
2018-06-11T10:29:35.868Z,14.37
2018-06-11T10:32:04.282Z,12.70
2018-06-11T10:34:32.706Z,13.17
2018-06-11T10:37:01.106Z,12.65
2018-06-11T10:39:29.543Z,13.38
2018-06-11T10:41:58.004Z,13.28
2018-06-11T10:44:26.415Z,14.13
2018-06-11T10:46:54.808Z,13.48
2018-06-11T10:49:23.233Z,13.13
2018-06-11T10:51:51.630Z,13.10
2018-06-11T10:54:19.751Z,13.83
2018-06-11T10:56:48.150Z,13.48
2018-06-11T10:59:16.585Z,14.05
2018-06-11T11:01:44.991Z,14.20
2018-06-11T11:04:13.484Z,13.93
2018-06-11T11:06:41.913Z,12.90
2018-06-11T11:09:10.337Z,11.48
2018-06-11T11:11:38.747Z,12.50
2018-06-11T11:14:07.132Z,12.82
2018-06-11T11:16:35.536Z,13.43
2018-06-11T11:19:03.941Z,11.53
2018-06-11T11:21:32.366Z,13.60
2018-06-11T11:24:00.783Z,13.70
2018-06-11T11:26:29.186Z,12.93
2018-06-11T11:28:57.566Z,11.80
2018-06-11T11:31:26.021Z,12.80
2018-06-11T11:33:54.530Z,13.72
2018-06-11T11:36:22.931Z,12.33
2018-06-11T11:38:51.326Z,12.27
2018-06-11T11:41:19.701Z,12.40
2018-06-11T11:43:48.119Z,12.33
2018-06-11T11:46:16.518Z,12.23
2018-06-11T11:48:44.921Z,11.13
2018-06-11T11:51:13.343Z,11.70
2018-06-11T11:53:41.738Z,10.40
2018-06-11T11:56:10.135Z,10.70
2018-06-11T11:58:38.562Z,11.30
2018-06-11T12:01:07.095Z,11.75
2018-06-11T12:03:35.499Z,10.85
2018-06-11T12:06:03.918Z,11.78
2018-06-11T12:08:32.022Z,12.30
2018-06-11T12:11:00.459Z,10.80
2018-06-11T12:13:28.836Z,9.70
2018-06-11T12:15:56.963Z,9.70
2018-06-11T12:18:25.379Z,10.45
2018-06-11T12:20:53.778Z,10.20
2018-06-11T12:23:21.897Z,10.80
2018-06-11T12:25:50.318Z,8.70
2018-06-11T12:28:18.443Z,9.40
2018-06-11T12:30:46.848Z,8.70
2018-06-11T12:33:15.246Z,8.35
2018-06-11T12:35:43.658Z,8.30
2018-06-11T12:38:12.046Z,9.18
2018-06-11T12:40:40.523Z,9.33
2018-06-11T12:43:09.029Z,10.80
2018-06-11T12:45:37.462Z,8.08
2018-06-11T12:48:05.553Z,8.70
2018-06-11T12:50:33.951Z,8.50
2018-06-11T12:53:02.379Z,7.55
2018-06-11T12:55:30.760Z,7.53
2018-06-11T12:57:58.878Z,7.00
2018-06-11T13:00:27.259Z,7.97
2018-06-11T13:02:55.642Z,6.80
2018-06-11T13:05:24.054Z,7.50
2018-06-11T13:07:52.488Z,7.97
2018-06-11T13:10:20.951Z,7.37
2018-06-11T13:12:49.339Z,6.40
2018-06-11T13:15:17.742Z,6.33
2018-06-11T13:17:46.158Z,7.30
2018-06-11T13:20:14.609Z,6.93
2018-06-11T13:22:43.006Z,8.27
2018-06-11T13:25:11.434Z,7.40
2018-06-11T13:27:39.815Z,6.30
2018-06-11T13:30:08.276Z,6.17
2018-06-11T13:32:36.341Z,5.97
2018-06-11T13:35:04.450Z,6.75
2018-06-11T13:37:32.862Z,6.60
2018-06-11T13:40:01.327Z,6.30
2018-06-11T13:42:29.757Z,5.95
2018-06-11T13:44:57.851Z,6.62
2018-06-11T13:47:26.276Z,5.42
2018-06-11T13:49:54.649Z,6.20
2018-06-11T13:52:23.040Z,5.60
2018-06-11T13:54:51.418Z,5.22
2018-06-11T13:57:19.823Z,4.70
2018-06-11T13:59:47.901Z,5.60
2018-06-11T14:02:16.339Z,4.85
2018-06-11T14:04:44.730Z,4.80
2018-06-11T14:07:13.139Z,4.37
2018-06-11T14:09:41.527Z,4.00
2018-06-11T14:12:09.958Z,4.28
2018-06-11T14:14:38.325Z,4.10
2018-06-11T14:17:06.703Z,6.17
2018-06-11T14:19:35.104Z,4.42
2018-06-11T14:22:03.572Z,3.70
2018-06-11T14:24:32.006Z,3.67
2018-06-11T14:27:00.370Z,4.37
2018-06-11T14:29:28.769Z,4.20
2018-06-11T14:31:57.161Z,4.30
2018-06-11T14:34:25.606Z,4.20
2018-06-11T14:36:53.706Z,3.67
2018-06-11T14:39:22.098Z,3.95
2018-06-11T14:41:50.519Z,3.90
2018-06-11T14:44:18.610Z,3.92
2018-06-11T14:46:47.014Z,3.60
2018-06-11T14:49:15.393Z,4.00
2018-06-11T14:51:43.798Z,4.30
2018-06-11T14:54:12.250Z,3.70
2018-06-11T14:56:40.662Z,4.00
2018-06-11T14:59:09.042Z,7.37
2018-06-11T15:01:37.455Z,4.20
2018-06-11T15:04:05.541Z,4.37
2018-06-11T15:06:33.994Z,6.47
2018-06-11T15:09:02.418Z,5.53
2018-06-11T15:11:30.861Z,5.08
2018-06-11T15:13:59.235Z,4.67
2018-06-11T15:16:27.671Z,5.22
2018-06-11T15:18:56.110Z,5.15
2018-06-11T15:21:24.503Z,5.30
2018-06-11T15:23:52.990Z,6.55
2018-06-11T15:26:21.410Z,4.40
2018-06-11T15:28:49.828Z,4.80
2018-06-11T15:31:18.231Z,9.70
2018-06-11T15:33:46.650Z,8.05
2018-06-11T15:36:15.108Z,38.15
2018-06-11T15:38:43.905Z,126.12
2018-06-11T15:41:12.667Z,33.57
2018-06-11T15:43:41.119Z,18.23
2018-06-11T15:46:09.509Z,7.00
2018-06-11T15:48:37.912Z,5.28
2018-06-11T15:51:06.339Z,5.70
2018-06-11T15:53:34.728Z,5.00
2018-06-11T15:56:03.187Z,5.30
2018-06-11T15:58:31.630Z,5.55
2018-06-11T16:01:00.044Z,4.80
2018-06-11T16:03:28.455Z,5.28
2018-06-11T16:05:56.569Z,4.87
2018-06-11T16:08:24.951Z,4.67
2018-06-11T16:10:53.442Z,5.00
2018-06-11T16:13:21.843Z,5.90
2018-06-11T16:15:50.254Z,5.95
2018-06-11T16:18:18.635Z,6.50
2018-06-11T16:20:47.080Z,6.20
2018-06-11T16:23:15.491Z,6.10
2018-06-11T16:25:43.907Z,5.75
2018-06-11T16:28:12.315Z,5.20
2018-06-11T16:30:40.699Z,5.00
2018-06-11T16:33:09.108Z,5.20
2018-06-11T16:35:37.493Z,4.90
2018-06-11T16:38:05.910Z,5.42
2018-06-11T16:40:34.475Z,5.60
2018-06-11T16:43:03.454Z,5.67
2018-06-11T16:45:31.824Z,5.40
2018-06-11T16:48:00.256Z,5.25
2018-06-11T16:50:28.675Z,5.40
2018-06-11T16:52:57.098Z,5.90
2018-06-11T16:55:25.503Z,6.30
2018-06-11T16:57:53.891Z,6.65
2018-06-11T17:00:22.029Z,6.65
2018-06-11T17:02:50.458Z,5.90
2018-06-11T17:05:18.545Z,6.08
2018-06-11T17:07:46.939Z,5.70
2018-06-11T17:10:15.426Z,5.63
2018-06-11T17:12:43.847Z,5.10
2018-06-11T17:15:12.275Z,5.53
2018-06-11T17:17:40.657Z,5.33
2018-06-11T17:20:09.093Z,5.53
2018-06-11T17:22:37.490Z,5.50
2018-06-11T17:25:05.623Z,5.70
2018-06-11T17:27:34.023Z,5.53
2018-06-11T17:30:02.431Z,5.63
2018-06-11T17:32:30.846Z,5.07
2018-06-11T17:34:59.310Z,5.70
2018-06-11T17:37:27.699Z,5.20
2018-06-11T17:39:56.095Z,5.72
2018-06-11T17:42:24.504Z,6.08
2018-06-11T17:44:52.906Z,5.72
2018-06-11T17:47:21.323Z,5.60
2018-06-11T17:49:49.750Z,5.97
2018-06-11T17:52:17.859Z,6.25
2018-06-11T17:54:46.266Z,5.70
2018-06-11T17:57:14.736Z,5.62
2018-06-11T17:59:43.113Z,6.00
2018-06-11T18:02:11.534Z,9.20
2018-06-11T18:04:40.077Z,7.00
2018-06-11T18:07:08.451Z,6.20
2018-06-11T18:09:36.846Z,5.80
2018-06-11T18:12:05.326Z,6.03
2018-06-11T18:14:33.725Z,8.48
2018-06-11T18:17:01.860Z,5.78
2018-06-11T18:19:30.283Z,7.33
2018-06-11T18:21:58.695Z,6.70
2018-06-11T18:24:27.128Z,5.80
2018-06-11T18:26:55.551Z,13.10
2018-06-11T18:29:23.949Z,5.90
2018-06-11T18:31:52.347Z,6.40
2018-06-11T18:34:20.715Z,7.67
2018-06-11T18:36:49.157Z,6.13
2018-06-11T18:39:17.618Z,6.50
2018-06-11T18:41:45.760Z,6.40
2018-06-11T18:44:14.182Z,7.62
2018-06-11T18:46:42.282Z,6.47
2018-06-11T18:49:10.698Z,6.50
2018-06-11T18:51:39.114Z,6.62
2018-06-11T18:54:07.517Z,6.30
2018-06-11T18:56:35.984Z,5.90
2018-06-11T18:59:04.430Z,6.10
2018-06-11T19:01:32.847Z,6.55
2018-06-11T19:04:01.216Z,6.37
2018-06-11T19:06:29.613Z,6.10
2018-06-11T19:08:58.067Z,5.80
2018-06-11T19:11:26.186Z,5.40
2018-06-11T19:13:54.627Z,5.53
2018-06-11T19:16:22.727Z,6.25
2018-06-11T19:18:51.286Z,5.87
2018-06-11T19:21:19.634Z,5.73
2018-06-11T19:23:48.036Z,5.22
2018-06-11T19:26:16.450Z,5.17
2018-06-11T19:28:44.846Z,5.53
2018-06-11T19:31:13.242Z,5.10
2018-06-11T19:33:41.644Z,5.83
2018-06-11T19:36:09.739Z,5.10
2018-06-11T19:38:38.140Z,5.40
2018-06-11T19:41:06.543Z,5.78
2018-06-11T19:43:34.973Z,6.50
2018-06-11T19:46:03.410Z,6.00
2018-06-11T19:48:31.795Z,6.08
2018-06-11T19:51:00.299Z,5.85
2018-06-11T19:53:28.631Z,5.50
2018-06-11T19:55:57.055Z,5.20
2018-06-11T19:58:25.202Z,5.10
2018-06-11T20:00:53.622Z,5.20
2018-06-11T20:03:22.019Z,5.15
2018-06-11T20:05:50.554Z,5.30
2018-06-11T20:08:18.950Z,5.78
2018-06-11T20:10:47.373Z,6.00
2018-06-11T20:13:15.782Z,5.58
2018-06-11T20:15:44.193Z,5.47
2018-06-11T20:18:12.598Z,4.85
2018-06-11T20:20:41.090Z,5.00
2018-06-11T20:23:09.502Z,4.80
2018-06-11T20:25:37.912Z,5.58
2018-06-11T20:28:06.322Z,5.20
2018-06-11T20:30:34.712Z,5.10
2018-06-11T20:33:03.130Z,4.90
2018-06-11T20:35:31.248Z,5.00
2018-06-11T20:37:59.667Z,5.10
2018-06-11T20:40:28.089Z,4.92
2018-06-11T20:42:56.477Z,4.83
2018-06-11T20:45:24.910Z,5.30
2018-06-11T20:47:53.289Z,5.05
2018-06-11T20:50:21.683Z,5.15
2018-06-11T20:52:49.773Z,5.00
2018-06-11T20:55:17.917Z,5.63
2018-06-11T20:57:46.333Z,5.15
2018-06-11T21:00:14.883Z,5.30
2018-06-11T21:02:43.015Z,5.70
2018-06-11T21:05:11.427Z,5.75
2018-06-11T21:07:39.831Z,4.80
2018-06-11T21:10:07.935Z,5.30
2018-06-11T21:12:36.373Z,5.90
2018-06-11T21:15:04.494Z,5.83
2018-06-11T21:17:32.883Z,5.20
2018-06-11T21:20:01.281Z,5.30
2018-06-11T21:22:29.692Z,5.80
2018-06-11T21:24:57.777Z,5.80
2018-06-11T21:27:26.192Z,5.30
2018-06-11T21:29:54.589Z,5.30
2018-06-11T21:32:22.977Z,5.60
2018-06-11T21:34:51.375Z,5.03
2018-06-11T21:37:19.476Z,6.10
2018-06-11T21:39:47.986Z,6.20
2018-06-11T21:42:16.434Z,6.83
2018-06-11T21:44:44.846Z,6.47
2018-06-11T21:47:13.226Z,6.45
2018-06-11T21:49:41.643Z,6.90
2018-06-11T21:52:09.750Z,6.97
2018-06-11T21:54:38.163Z,6.70
2018-06-11T21:57:06.583Z,7.00
2018-06-11T21:59:35.011Z,7.03
2018-06-11T22:02:04.030Z,7.75
2018-06-11T22:04:32.365Z,7.50
2018-06-11T22:07:00.793Z,7.00
2018-06-11T22:09:29.214Z,7.60
2018-06-11T22:11:57.627Z,8.35
2018-06-11T22:14:26.023Z,7.87
2018-06-11T22:16:54.424Z,8.20
2018-06-11T22:19:22.796Z,7.80
2018-06-11T22:21:51.227Z,7.80
2018-06-11T22:24:19.602Z,8.17
2018-06-11T22:26:47.995Z,8.03
2018-06-11T22:29:16.399Z,8.73
2018-06-11T22:31:44.796Z,8.15
2018-06-11T22:34:12.897Z,8.60
2018-06-11T22:36:41.302Z,8.70
2018-06-11T22:39:09.715Z,8.40
2018-06-11T22:41:38.110Z,8.35
2018-06-11T22:44:06.549Z,8.98
2018-06-11T22:46:34.940Z,8.30
2018-06-11T22:49:03.317Z,8.50
2018-06-11T22:51:31.723Z,8.50
2018-06-11T22:53:59.805Z,8.70
2018-06-11T22:56:28.209Z,9.23
2018-06-11T22:58:56.594Z,8.37
2018-06-11T23:01:24.995Z,8.60
2018-06-11T23:03:53.357Z,8.83
2018-06-11T23:06:21.740Z,9.00
2018-06-11T23:08:50.141Z,9.80
2018-06-11T23:11:18.537Z,8.80
2018-06-11T23:13:46.943Z,8.70
2018-06-11T23:16:15.319Z,9.70
2018-06-11T23:18:43.701Z,9.20
2018-06-11T23:21:12.078Z,8.70
2018-06-11T23:23:40.479Z,9.63
2018-06-11T23:26:08.851Z,9.47
2018-06-11T23:28:37.238Z,9.80
2018-06-11T23:31:05.641Z,9.40
2018-06-11T23:33:34.048Z,9.30
2018-06-11T23:36:02.144Z,9.30
2018-06-11T23:38:30.539Z,9.55
2018-06-11T23:41:01.994Z,9.20
2018-06-11T23:43:30.473Z,9.65
2018-06-11T23:45:58.914Z,9.63
2018-06-11T23:48:27.338Z,9.17
2018-06-11T23:50:55.714Z,9.30
2018-06-11T23:53:24.090Z,9.50
2018-06-11T23:55:52.518Z,10.88
2018-06-11T23:58:20.879Z,9.75
